Weather reports worldwide

Advertisment
Autilla del Pino, Spain (8072): temperature & dewpoint: 13.09.2019 19:00:00 - 19.09.2019 19:00:00 (CEST)Autilla del Pino, Spain (8072): wind speed & gusts: 13.09.2019 19:00:00 - 19.09.2019 19:00:00 (CEST)Autilla del Pino, Spain (8072): wind direction: 13.09.2019 19:00:00 - 19.09.2019 19:00:00 (CEST)Autilla del Pino, Spain (8072): precipitation: 13.09.2019 19:00:00 - 19.09.2019 19:00:00 (CEST)
Date & Time tt [°C] td [°C] ff [km/h] ff [kn] fx [km/h] fx [kn] dd rr [mm]
19.09.2019 19:00:00 24,2 7,3 8 4 17 9 NE 0,0
19.09.2019 18:00:00 24,6 7,3 10 5 15 8 N 0,0
19.09.2019 17:00:00 24,9 8,0 6 4 25 14 NE 0,0
19.09.2019 16:00:00 24,2 8,1 7 4 23 12 NNE 0,0
19.09.2019 15:00:00 24,5 9,3 9 5 16 9 E 0,0
19.09.2019 14:00:00 22,6 9,4 5 3 21 11 NE -
19.09.2019 13:00:00 21,6 10,2 10 5 27 14 E 0,0
19.09.2019 12:00:00 19,7 11,0 13 7 24 13 E 0,0
19.09.2019 11:00:00 17,3 11,3 14 8 21 12 E 0,0
19.09.2019 10:00:00 14,8 12,3 15 8 20 11 E 0,0
19.09.2019 09:00:00 12,4 11,9 11 6 15 8 E 0,0
19.09.2019 08:00:00 11,5 11,2 7 4 16 9 ENE -
19.09.2019 07:00:00 12,0 11,7 8 5 14 8 ENE 0,0
19.09.2019 06:00:00 12,8 12,0 9 5 18 10 ENE 0,0
19.09.2019 05:00:00 13,5 12,7 14 8 18 10 ENE 0,0
19.09.2019 04:00:00 14,1 13,2 14 7 16 8 E 0,0
19.09.2019 03:00:00 14,5 13,3 13 7 18 10 E 0,0
19.09.2019 02:00:00 15,0 13,4 13 7 21 12 E -
19.09.2019 01:00:00 15,8 13,1 15 8 21 12 ENE 0,0
19.09.2019 00:00:00 16,7 12,2 14 7 21 12 E 0,0
18.09.2019 23:00:00 17,9 11,9 14 8 20 11 E 0,0
18.09.2019 22:00:00 18,2 14,1 9 5 14 7 ENE 0,0
18.09.2019 21:00:00 18,9 13,6 11 6 18 10 ENE 0,0
18.09.2019 20:00:00 21,0 9,6 6 4 14 7 NNE -
18.09.2019 19:00:00 23,2 9,6 6 3 11 6 NE 0,0
18.09.2019 18:00:00 24,0 10,6 5 3 17 9 WNW 0,0
18.09.2019 17:00:00 23,5 10,2 7 4 16 9 WNW 0,0
18.09.2019 16:00:00 22,6 10,4 5 3 16 9 NW 0,0
18.09.2019 15:00:00 22,3 10,8 2 1 13 7 WSW 0,0
18.09.2019 14:00:00 20,9 10,6 4 2 10 6 NNE -
18.09.2019 13:00:00 - - - - - - - -
18.09.2019 12:00:00 - - - - - - - -
18.09.2019 11:00:00 17,6 13,8 4 2 8 5 W 0,0
18.09.2019 10:00:00 15,5 13,7 5 3 8 5 W 0,0
18.09.2019 09:00:00 13,8 13,1 6 3 8 5 NW 0,0
18.09.2019 08:00:00 13,6 12,8 1 0 6 3 E -
18.09.2019 07:00:00 13,3 12,6 2 1 8 5 SSE 0,0
18.09.2019 06:00:00 12,9 12,3 4 2 12 7 SSE 0,0
18.09.2019 05:00:00 13,1 12,1 9 5 14 7 SSW 0,0
18.09.2019 04:00:00 13,6 12,5 12 6 32 17 NE 0,0
18.09.2019 03:00:00 13,7 13,0 21 11 26 14 ENE 0,0
18.09.2019 02:00:00 13,9 13,0 5 3 23 12 SE -
18.09.2019 01:00:00 13,8 12,6 13 7 20 11 N 1,9
18.09.2019 00:00:00 14,6 12,8 15 8 29 16 WNW 0,0
17.09.2019 23:00:00 15,2 12,1 24 13 53 29 WSW 1,3
17.09.2019 22:00:00 19,0 10,8 33 18 54 29 WSW 0,0
17.09.2019 21:00:00 21,4 8,7 7 4 8 4 NNW 0,0
17.09.2019 20:00:00 25,2 7,3 1 0 10 5 S -
17.09.2019 19:00:00 26,5 8,0 4 2 15 8 NE 0,0
17.09.2019 18:00:00 26,6 8,1 8 4 13 7 E 0,0
17.09.2019 17:00:00 27,2 9,0 1 1 19 11 W 0,0
17.09.2019 16:00:00 26,3 9,6 1 1 15 8 ENE 0,0
17.09.2019 15:00:00 25,5 10,9 7 4 16 9 E 0,0
17.09.2019 14:00:00 24,6 11,6 6 3 19 11 ESE -
17.09.2019 13:00:00 23,8 11,8 8 4 16 9 E 0,0
17.09.2019 12:00:00 21,1 13,6 8 5 14 7 ESE 0,0
17.09.2019 11:00:00 18,3 13,6 10 5 13 7 E 0,0
17.09.2019 10:00:00 17,4 14,9 10 5 14 7 ESE 0,0
17.09.2019 09:00:00 14,4 13,8 9 5 13 7 ESE 0,0
17.09.2019 08:00:00 13,6 13,0 10 5 11 6 E -
17.09.2019 07:00:00 13,9 13,2 6 4 10 6 E 0,0
17.09.2019 06:00:00 14,8 14,0 5 3 9 5 ESE 0,0
17.09.2019 05:00:00 13,9 13,2 7 4 9 5 E 0,0
17.09.2019 04:00:00 14,5 13,4 7 4 8 5 E 0,0
17.09.2019 03:00:00 15,2 13,9 5 3 9 5 E 0,0
17.09.2019 02:00:00 15,5 14,0 6 3 12 6 ENE -
17.09.2019 01:00:00 16,0 13,3 6 3 12 6 ENE 0,0
17.09.2019 00:00:00 16,2 13,0 7 4 13 7 NE 0,0
16.09.2019 23:00:00 17,5 12,6 4 2 8 5 ESE 0,0
16.09.2019 22:00:00 18,4 12,8 6 3 10 5 ENE 0,0
16.09.2019 21:00:00 18,6 12,1 10 5 16 9 SSW 0,0
16.09.2019 20:00:00 20,2 11,4 9 5 18 10 SW -
16.09.2019 19:00:00 22,8 11,2 9 5 14 8 S 0,0
16.09.2019 18:00:00 22,5 11,0 6 3 16 8 SSE 0,0
16.09.2019 17:00:00 24,9 11,1 6 3 16 9 ESE 0,0
16.09.2019 16:00:00 23,9 11,2 5 3 12 7 ENE 0,0
16.09.2019 15:00:00 22,4 12,1 5 3 18 10 E 0,0
16.09.2019 14:00:00 22,9 11,9 4 2 13 7 ESE -
16.09.2019 13:00:00 21,1 12,5 4 2 16 9 SE 0,0
16.09.2019 12:00:00 18,8 13,3 11 6 22 12 E 0,0
16.09.2019 11:00:00 16,6 13,2 13 7 22 12 ESE 0,0
16.09.2019 10:00:00 - - - - - - - -
16.09.2019 09:00:00 13,8 13,4 13 7 16 8 E 0,0
16.09.2019 08:00:00 12,6 12,1 11 6 15 8 E -
16.09.2019 07:00:00 12,9 12,4 13 7 16 9 ESE 0,0
16.09.2019 06:00:00 12,8 12,3 11 6 15 8 ESE 0,0
16.09.2019 05:00:00 12,7 12,2 10 5 17 9 E 0,0
16.09.2019 04:00:00 13,0 12,5 13 7 17 9 ENE 0,0
16.09.2019 03:00:00 13,5 13,1 10 5 13 7 ENE 0,0
16.09.2019 02:00:00 13,4 13,0 10 5 16 8 ENE -
16.09.2019 01:00:00 13,3 12,8 9 5 12 7 ENE 0,0
16.09.2019 00:00:00 13,6 12,8 12 7 18 10 ENE 0,0
15.09.2019 23:00:00 13,8 12,5 13 7 16 9 ENE 0,0
15.09.2019 22:00:00 14,7 13,3 11 6 16 8 E 0,0
15.09.2019 21:00:00 15,1 13,7 8 4 16 8 ENE 0,0
15.09.2019 20:00:00 15,5 13,6 11 6 23 13 ENE -
15.09.2019 19:00:00 16,6 13,6 11 6 23 12 E 0,0
15.09.2019 18:00:00 16,5 13,3 12 7 29 16 ESE 0,0
15.09.2019 17:00:00 18,9 12,8 17 9 22 12 E 0,0
15.09.2019 16:00:00 19,7 14,7 11 6 19 10 E 0,0
15.09.2019 15:00:00 15,8 15,2 15 8 26 14 ESE 1,6
15.09.2019 14:00:00 13,5 13,2 14 8 48 26 SE -
15.09.2019 13:00:00 20,8 10,3 19 10 32 18 ESE 0,0
15.09.2019 12:00:00 19,4 10,9 22 12 34 19 E 0,0
15.09.2019 11:00:00 18,5 12,7 18 10 23 12 E 0,0
15.09.2019 10:00:00 15,7 13,2 11 6 21 11 ENE 0,0
15.09.2019 09:00:00 14,5 12,5 19 10 38 20 ENE 1,8
15.09.2019 08:00:00 14,6 11,6 16 9 47 26 E -
15.09.2019 07:00:00 14,7 11,7 14 8 18 10 ENE 0,0
15.09.2019 06:00:00 14,6 11,9 13 7 16 9 ENE 0,0
15.09.2019 05:00:00 15,1 11,9 11 6 17 9 E 0,0
15.09.2019 04:00:00 15,2 11,8 16 8 23 12 ENE 0,0
15.09.2019 03:00:00 14,8 13,2 6 4 15 8 E 0,0
15.09.2019 02:00:00 14,8 13,6 9 5 28 15 ENE -
15.09.2019 01:00:00 15,0 14,3 16 8 22 12 ENE 1,4
15.09.2019 00:00:00 15,8 13,5 5 3 20 11 SE 0,1
14.09.2019 23:00:00 16,7 13,3 19 10 27 14 ESE 0,0
14.09.2019 22:00:00 16,6 13,0 17 9 21 11 E 0,0
14.09.2019 21:00:00 17,1 12,8 12 6 24 13 ESE 0,0
14.09.2019 20:00:00 16,5 14,1 11 6 46 25 SSE -
14.09.2019 19:00:00 22,0 9,6 28 15 46 25 S 0,0
14.09.2019 18:00:00 24,4 9,2 13 7 31 17 SE 0,0
14.09.2019 17:00:00 25,8 9,6 19 10 39 21 ESE 0,0
14.09.2019 16:00:00 27,3 10,0 27 15 46 25 ESE 0,0
14.09.2019 15:00:00 25,4 10,0 24 13 48 26 E 0,0
14.09.2019 14:00:00 24,8 10,3 25 14 40 22 ESE -
14.09.2019 13:00:00 23,9 11,9 22 12 40 22 E 0,0
14.09.2019 12:00:00 21,4 11,1 25 13 37 20 E 0,0
14.09.2019 11:00:00 19,9 12,1 17 9 29 16 E 0,0
14.09.2019 10:00:00 16,7 11,8 17 9 24 13 ENE 0,0
14.09.2019 09:00:00 15,3 11,4 11 6 23 13 E 0,0
14.09.2019 08:00:00 14,6 10,8 13 7 17 9 E -
14.09.2019 07:00:00 14,5 10,8 12 7 18 10 E 0,0
14.09.2019 06:00:00 14,4 10,6 13 7 16 9 ENE 0,0
14.09.2019 05:00:00 14,6 10,2 14 8 18 10 ENE 0,0
14.09.2019 04:00:00 14,1 9,7 15 8 22 12 ENE 0,0
14.09.2019 03:00:00 15,0 10,0 16 9 29 15 E 0,0
14.09.2019 02:00:00 14,5 10,2 16 8 20 11 ENE -
14.09.2019 01:00:00 15,3 10,3 15 8 21 11 ENE 0,0
14.09.2019 00:00:00 16,0 10,5 15 8 17 9 ENE 0,0
13.09.2019 23:00:00 16,7 10,8 12 7 16 9 ENE 0,0
13.09.2019 22:00:00 17,0 11,2 10 6 23 12 E 0,0
13.09.2019 21:00:00 17,9 9,8 18 10 36 19 ESE 0,0
13.09.2019 20:00:00 19,2 9,4 24 13 44 24 ESE -
13.09.2019 19:00:00 19,5 9,0 26 14 43 23 ESE 0,0

tt = temperature
td = dewpoint
ff = wind speed
fx = gusts
dd = wind direction
rr = precipitation

Next stations